createdAt,value
2019-04-04T00:00:23.396Z,64.09
2019-04-04T00:01:31.477Z,64.10
2019-04-04T00:02:36.399Z,64.11
2019-04-04T00:03:41.614Z,64.12
2019-04-04T00:04:46.916Z,64.15
2019-04-04T00:05:52.152Z,64.15
2019-04-04T00:06:58.124Z,64.19
2019-04-04T00:08:03.772Z,64.19
2019-04-04T00:09:10.607Z,64.18
2019-04-04T00:10:15.626Z,64.20
2019-04-04T00:11:20.675Z,64.24
2019-04-04T00:12:25.666Z,64.28
2019-04-04T00:13:30.597Z,64.31
2019-04-04T00:14:35.691Z,64.32
2019-04-04T00:15:40.636Z,64.34
2019-04-04T00:16:48.445Z,64.35
2019-04-04T00:17:53.846Z,64.38
2019-04-04T00:18:59.333Z,64.38
2019-04-04T00:20:04.833Z,64.39
2019-04-04T00:21:09.752Z,64.44
2019-04-04T00:22:15.123Z,64.47
2019-04-04T00:23:20.144Z,64.50
2019-04-04T00:24:25.374Z,64.56
2019-04-04T00:25:30.283Z,64.63
2019-04-04T00:26:35.229Z,64.73
2019-04-04T00:27:43.669Z,64.79
2019-04-04T00:28:47.152Z,64.85
2019-04-04T00:29:52.347Z,64.86
2019-04-04T00:30:57.335Z,64.90
2019-04-04T00:32:02.268Z,64.96
2019-04-04T00:33:07.395Z,65.01
2019-04-04T00:34:13.702Z,65.05
2019-04-04T00:35:18.911Z,65.08
2019-04-04T00:36:23.948Z,65.09
2019-04-04T00:37:29.541Z,65.11
2019-04-04T00:38:37.708Z,65.10
2019-04-04T00:39:41.459Z,65.14
2019-04-04T00:40:46.528Z,65.18
2019-04-04T00:41:51.433Z,65.23
2019-04-04T00:42:56.943Z,65.24
2019-04-04T00:44:02.001Z,65.29
2019-04-04T00:45:07.480Z,65.30
2019-04-04T00:46:12.589Z,65.34
2019-04-04T00:47:17.593Z,65.37
2019-04-04T00:48:22.919Z,65.43
2019-04-04T00:49:27.915Z,65.46
2019-04-04T00:50:33.015Z,65.36
2019-04-04T00:51:39.160Z,65.36
2019-04-04T00:52:44.580Z,65.57
2019-04-04T00:53:49.506Z,65.61
2019-04-04T00:54:54.529Z,65.64
2019-04-04T00:55:59.510Z,65.67
2019-04-04T00:57:04.559Z,65.71
2019-04-04T00:58:09.470Z,65.78
2019-04-04T00:59:14.422Z,65.86
2019-04-04T01:00:19.621Z,65.93
2019-04-04T01:01:26.968Z,66.00
2019-04-04T01:02:31.344Z,66.05
2019-04-04T01:03:36.365Z,66.07
2019-04-04T01:04:41.440Z,66.17
2019-04-04T01:05:46.378Z,66.23
2019-04-04T01:06:51.406Z,66.32
2019-04-04T01:07:56.363Z,66.37
2019-04-04T01:09:01.421Z,66.40
2019-04-04T01:10:07.253Z,66.43
2019-04-04T01:11:12.205Z,66.45
2019-04-04T01:12:17.478Z,66.46
2019-04-04T01:13:23.280Z,66.47
2019-04-04T01:14:29.954Z,66.52
2019-04-04T01:15:35.013Z,66.56
2019-04-04T01:16:40.268Z,66.58
2019-04-04T01:17:45.289Z,66.62
2019-04-04T01:18:50.242Z,66.66
2019-04-04T01:19:55.217Z,66.73
2019-04-04T01:21:00.282Z,66.76
2019-04-04T01:22:05.586Z,66.81
2019-04-04T01:23:10.615Z,66.85
2019-04-04T01:24:15.884Z,66.90
2019-04-04T01:25:20.828Z,66.94
2019-04-04T01:26:25.792Z,66.96
2019-04-04T01:27:30.684Z,67.01
2019-04-04T01:28:37.185Z,67.03
2019-04-04T01:29:42.307Z,67.07
2019-04-04T01:30:47.358Z,67.09
2019-04-04T01:31:52.352Z,67.15
2019-04-04T01:32:57.585Z,67.19
2019-04-04T01:34:02.671Z,67.21
2019-04-04T01:35:08.133Z,67.24
2019-04-04T01:36:13.170Z,67.25
2019-04-04T01:37:18.107Z,67.28
2019-04-04T01:38:23.320Z,67.33
2019-04-04T01:39:29.068Z,67.40
2019-04-04T01:40:35.041Z,67.42
2019-04-04T01:41:40.109Z,67.52
2019-04-04T01:42:45.114Z,67.52
2019-04-04T01:43:50.066Z,67.56
2019-04-04T01:44:55.102Z,67.62
2019-04-04T01:46:00.131Z,67.66
2019-04-04T01:47:05.183Z,67.67
2019-04-04T01:48:10.195Z,67.70
2019-04-04T01:49:15.576Z,67.74
2019-04-04T01:50:22.469Z,67.81
2019-04-04T01:51:27.258Z,67.86
2019-04-04T01:52:32.551Z,67.88
2019-04-04T01:53:37.516Z,67.94
2019-04-04T01:54:42.561Z,67.88
2019-04-04T01:55:47.856Z,68.05
2019-04-04T01:56:53.242Z,67.96
2019-04-04T01:57:58.417Z,68.00
2019-04-04T01:59:03.577Z,68.15
2019-04-04T02:00:10.329Z,68.15
2019-04-04T02:01:16.564Z,67.94
2019-04-04T02:02:22.335Z,67.96
2019-04-04T02:03:27.278Z,67.97
2019-04-04T02:04:32.328Z,68.00
2019-04-04T02:05:37.420Z,68.02
2019-04-04T02:06:42.360Z,68.04
2019-04-04T02:07:47.707Z,68.04
2019-04-04T02:08:52.720Z,67.93
2019-04-04T02:09:57.669Z,67.93
2019-04-04T02:11:05.232Z,68.14
2019-04-04T02:12:09.779Z,68.20
2019-04-04T02:13:14.799Z,68.23
2019-04-04T02:14:19.869Z,68.24
2019-04-04T02:15:25.153Z,68.26
2019-04-04T02:16:30.220Z,68.31
2019-04-04T02:17:35.200Z,68.33
2019-04-04T02:18:40.138Z,68.31
2019-04-04T02:19:45.164Z,68.31
2019-04-04T02:20:50.270Z,68.46
2019-04-04T02:21:55.284Z,68.36
2019-04-04T02:23:01.543Z,68.60
2019-04-04T02:24:06.961Z,68.78
2019-04-04T02:25:12.112Z,68.78
2019-04-04T02:26:17.174Z,68.49
2019-04-04T02:27:22.250Z,68.48
2019-04-04T02:28:27.227Z,68.47
2019-04-04T02:29:32.577Z,68.53
2019-04-04T02:30:37.857Z,68.58
2019-04-04T02:31:46.280Z,68.62
2019-04-04T02:32:51.306Z,68.58
2019-04-04T02:33:56.262Z,68.55
2019-04-04T02:35:01.280Z,68.51
2019-04-04T02:36:06.471Z,68.50
2019-04-04T02:37:11.662Z,68.49
2019-04-04T02:38:16.624Z,68.50
2019-04-04T02:39:22.254Z,68.54
2019-04-04T02:40:27.596Z,68.54
2019-04-04T02:41:32.619Z,68.57
2019-04-04T02:42:37.681Z,68.58
2019-04-04T02:43:42.702Z,68.55
2019-04-04T02:44:48.030Z,68.59
2019-04-04T02:45:53.149Z,68.93
2019-04-04T02:46:58.767Z,68.62
2019-04-04T02:48:03.799Z,68.62
2019-04-04T02:49:08.838Z,68.69
2019-04-04T02:50:14.069Z,68.77
2019-04-04T02:51:19.364Z,68.86
2019-04-04T02:52:24.785Z,68.95
2019-04-04T02:53:29.827Z,69.00
2019-04-04T02:54:34.871Z,69.07
2019-04-04T02:55:39.882Z,69.09
2019-04-04T02:56:45.109Z,69.13
2019-04-04T02:57:50.227Z,69.19
2019-04-04T02:58:55.359Z,69.26
2019-04-04T03:00:00.548Z,69.14
2019-04-04T03:01:05.660Z,69.41
2019-04-04T03:02:10.740Z,69.46
2019-04-04T03:03:15.848Z,69.48
2019-04-04T03:04:20.937Z,69.50
2019-04-04T03:05:25.994Z,69.50
2019-04-04T03:06:31.092Z,69.52
2019-04-04T03:07:36.303Z,69.52
2019-04-04T03:08:41.492Z,69.53
2019-04-04T03:09:46.592Z,69.54
2019-04-04T03:10:51.676Z,69.54
2019-04-04T03:11:56.864Z,69.24
2019-04-04T03:13:02.337Z,69.24
2019-04-04T03:14:07.428Z,69.54
2019-04-04T03:15:13.026Z,69.33
2019-04-04T03:16:21.052Z,69.33
2019-04-04T03:17:24.888Z,69.54
2019-04-04T03:18:29.851Z,70.08
2019-04-04T03:19:34.853Z,70.08
2019-04-04T03:20:40.139Z,69.49
2019-04-04T03:21:45.142Z,69.45
2019-04-04T03:22:50.231Z,69.42
2019-04-04T03:23:55.202Z,69.37
2019-04-04T03:25:00.474Z,69.36
2019-04-04T03:26:05.504Z,69.33
2019-04-04T03:27:10.619Z,69.35
2019-04-04T03:28:15.646Z,69.32
2019-04-04T03:29:20.760Z,69.32
2019-04-04T03:30:25.873Z,69.25
2019-04-04T03:31:36.150Z,69.25
2019-04-04T03:32:37.703Z,69.22
2019-04-04T03:33:43.057Z,69.21
2019-04-04T03:34:50.943Z,69.17
2019-04-04T03:35:54.860Z,69.19
2019-04-04T03:36:59.782Z,69.19
2019-04-04T03:38:04.867Z,69.19
2019-04-04T03:39:10.285Z,69.21
2019-04-04T03:40:15.649Z,69.23
2019-04-04T03:41:20.621Z,69.24
2019-04-04T03:42:25.680Z,69.29
2019-04-04T03:43:30.759Z,69.29
2019-04-04T03:44:36.085Z,69.29
2019-04-04T03:45:41.222Z,69.30
2019-04-04T03:46:46.338Z,69.33
2019-04-04T03:47:51.386Z,69.33
2019-04-04T03:48:56.665Z,69.30
2019-04-04T03:50:01.680Z,69.30
2019-04-04T03:51:07.253Z,69.30
2019-04-04T03:52:12.429Z,69.35
2019-04-04T03:53:18.907Z,69.35
2019-04-04T03:54:26.082Z,69.26
2019-04-04T03:55:31.267Z,69.22
2019-04-04T03:56:39.377Z,69.24
2019-04-04T03:57:42.957Z,69.23
2019-04-04T03:58:48.099Z,69.23
2019-04-04T03:59:53.203Z,69.13
2019-04-04T04:00:58.218Z,69.12
2019-04-04T04:02:03.233Z,69.11
2019-04-04T04:03:08.249Z,69.09
2019-04-04T04:04:13.376Z,69.36
2019-04-04T04:05:25.829Z,69.36
2019-04-04T04:06:30.845Z,69.06
2019-04-04T04:07:35.827Z,68.98
2019-04-04T04:08:40.753Z,68.96
2019-04-04T04:09:45.684Z,68.91
2019-04-04T04:10:50.612Z,68.87
2019-04-04T04:11:55.602Z,68.83
2019-04-04T04:13:00.938Z,69.01
2019-04-04T04:14:05.973Z,69.01
2019-04-04T04:15:11.059Z,68.74
2019-04-04T04:16:16.144Z,68.70
2019-04-04T04:17:21.168Z,68.69
2019-04-04T04:18:26.185Z,68.68
2019-04-04T04:19:31.558Z,68.68
2019-04-04T04:20:37.861Z,68.65
2019-04-04T04:21:43.871Z,68.64
2019-04-04T04:22:50.988Z,68.60
2019-04-04T04:23:56.986Z,68.55
2019-04-04T04:25:03.772Z,68.54
2019-04-04T04:26:09.877Z,68.53
2019-04-04T04:27:15.821Z,68.47
2019-04-04T04:28:21.609Z,68.46
2019-04-04T04:29:29.495Z,68.42
2019-04-04T04:30:33.923Z,68.37
2019-04-04T04:31:38.979Z,68.39
2019-04-04T04:32:44.003Z,68.38
2019-04-04T04:33:49.057Z,68.42
2019-04-04T04:34:54.084Z,68.46
2019-04-04T04:35:59.113Z,68.46
2019-04-04T04:37:04.208Z,68.45
2019-04-04T04:38:09.269Z,68.45
2019-04-04T04:39:14.484Z,68.43
2019-04-04T04:40:19.533Z,68.41
2019-04-04T04:41:24.646Z,68.35
2019-04-04T04:42:29.943Z,68.31
2019-04-04T04:43:34.967Z,68.32
2019-04-04T04:44:42.802Z,68.35
2019-04-04T04:45:47.900Z,68.36
2019-04-04T04:46:53.217Z,68.38
2019-04-04T04:47:58.196Z,68.41
2019-04-04T04:49:04.287Z,68.77
2019-04-04T04:50:09.978Z,68.77
2019-04-04T04:51:15.258Z,68.40
2019-04-04T04:52:20.293Z,68.41
2019-04-04T04:53:25.406Z,68.42
2019-04-04T04:54:30.529Z,69.18
2019-04-04T04:55:35.530Z,68.38
2019-04-04T04:56:40.572Z,68.39
2019-04-04T04:57:45.940Z,68.35
2019-04-04T04:58:50.918Z,68.33
2019-04-04T04:59:56.073Z,68.30
2019-04-04T05:01:01.102Z,68.32
2019-04-04T05:02:06.099Z,68.34
2019-04-04T05:03:11.049Z,68.34
2019-04-04T05:04:16.603Z,68.41
2019-04-04T05:05:21.750Z,68.51
2019-04-04T05:06:26.866Z,68.46
2019-04-04T05:07:31.967Z,68.59
2019-04-04T05:08:37.051Z,68.66
2019-04-04T05:09:43.052Z,68.69
2019-04-04T05:10:48.804Z,68.78
2019-04-04T05:11:54.252Z,68.81
2019-04-04T05:12:59.386Z,69.21
2019-04-04T05:14:04.625Z,68.77
2019-04-04T05:15:10.533Z,68.78
2019-04-04T05:16:15.520Z,68.76
2019-04-04T05:17:20.645Z,68.73
2019-04-04T05:18:25.660Z,68.68
2019-04-04T05:19:30.973Z,68.67
2019-04-04T05:20:36.051Z,68.64
2019-04-04T05:21:41.377Z,68.61
2019-04-04T05:22:46.724Z,68.60
2019-04-04T05:23:52.008Z,68.56
2019-04-04T05:25:08.009Z,68.88
2019-04-04T05:26:03.834Z,68.88
2019-04-04T05:27:08.833Z,68.47
2019-04-04T05:28:13.828Z,68.42
2019-04-04T05:29:18.934Z,68.39
2019-04-04T05:30:24.084Z,68.39
2019-04-04T05:31:29.264Z,68.46
2019-04-04T05:32:34.205Z,68.42
2019-04-04T05:33:39.169Z,68.42
2019-04-04T05:34:44.249Z,68.41
2019-04-04T05:35:49.173Z,68.43
2019-04-04T05:36:54.335Z,68.36
2019-04-04T05:37:59.326Z,68.34
2019-04-04T05:39:06.035Z,68.37
2019-04-04T05:40:11.423Z,68.42
2019-04-04T05:41:16.756Z,68.46
2019-04-04T05:42:21.746Z,68.48
2019-04-04T05:43:27.032Z,68.50
2019-04-04T05:44:34.176Z,68.54
2019-04-04T05:45:38.734Z,68.55
2019-04-04T05:46:43.699Z,68.60
2019-04-04T05:47:49.071Z,68.57
2019-04-04T05:48:54.041Z,68.56
2019-04-04T05:49:59.110Z,68.51
2019-04-04T05:51:04.255Z,68.46
2019-04-04T05:52:09.508Z,68.39
2019-04-04T05:53:14.597Z,68.39
2019-04-04T05:54:19.599Z,68.36
2019-04-04T05:55:24.589Z,68.31
2019-04-04T05:56:29.710Z,68.25
2019-04-04T05:57:34.788Z,68.26
2019-04-04T05:58:40.175Z,68.23
2019-04-04T05:59:45.121Z,68.17
2019-04-04T06:00:50.221Z,68.13
2019-04-04T06:01:55.235Z,68.13
2019-04-04T06:03:00.351Z,68.10
2019-04-04T06:04:05.474Z,68.07
2019-04-04T06:05:11.130Z,68.00
2019-04-04T06:06:16.177Z,67.97
2019-04-04T06:07:21.439Z,67.94
2019-04-04T06:08:26.899Z,67.89
2019-04-04T06:09:32.232Z,67.81
2019-04-04T06:10:37.599Z,67.72
2019-04-04T06:11:42.612Z,67.67
2019-04-04T06:12:47.583Z,67.62
2019-04-04T06:13:52.944Z,67.58
2019-04-04T06:15:00.348Z,67.54
2019-04-04T06:16:04.988Z,67.51
2019-04-04T06:17:10.246Z,67.44
2019-04-04T06:18:15.328Z,67.43
2019-04-04T06:19:20.415Z,66.93
2019-04-04T06:20:25.851Z,66.93
2019-04-04T06:21:31.033Z,67.33
2019-04-04T06:22:36.023Z,67.88
2019-04-04T06:23:40.943Z,67.88
2019-04-04T06:24:45.962Z,67.20
2019-04-04T06:25:51.233Z,67.16
2019-04-04T06:26:56.599Z,67.14
2019-04-04T06:28:02.253Z,67.06
2019-04-04T06:29:07.714Z,67.02
2019-04-04T06:30:13.378Z,66.95
2019-04-04T06:31:18.720Z,66.76
2019-04-04T06:32:23.938Z,66.76
2019-04-04T06:33:29.282Z,66.74
2019-04-04T06:34:34.378Z,66.43
2019-04-04T06:35:40.090Z,66.43
2019-04-04T06:36:47.042Z,66.17
2019-04-04T06:37:52.455Z,66.17
2019-04-04T06:38:57.603Z,66.44
2019-04-04T06:40:02.712Z,66.44
2019-04-04T06:41:07.860Z,66.62
2019-04-04T06:42:12.979Z,66.61
2019-04-04T06:43:18.422Z,66.58
2019-04-04T06:44:23.620Z,66.58
2019-04-04T06:45:29.822Z,66.58
2019-04-04T06:46:35.184Z,66.66
2019-04-04T06:47:40.406Z,66.69
2019-04-04T06:48:45.543Z,66.78
2019-04-04T06:49:50.509Z,66.76
2019-04-04T06:50:55.702Z,66.70
2019-04-04T06:52:00.760Z,66.62
2019-04-04T06:53:05.793Z,66.54
2019-04-04T06:54:10.913Z,66.44
2019-04-04T06:55:15.927Z,66.34
2019-04-04T06:56:21.269Z,66.28
2019-04-04T06:57:26.349Z,66.18
2019-04-04T06:58:31.400Z,66.09
2019-04-04T06:59:37.062Z,66.01
2019-04-04T07:00:42.668Z,65.95
2019-04-04T07:01:47.638Z,65.84
2019-04-04T07:02:55.432Z,65.76
2019-04-04T07:04:00.236Z,65.66
2019-04-04T07:05:06.321Z,65.56
2019-04-04T07:06:12.168Z,65.49
2019-04-04T07:07:17.542Z,65.50
2019-04-04T07:08:22.660Z,65.46
2019-04-04T07:09:27.561Z,65.50
2019-04-04T07:10:32.872Z,65.49
2019-04-04T07:11:38.312Z,65.53
2019-04-04T07:12:43.946Z,65.55
2019-04-04T07:13:49.147Z,65.57
2019-04-04T07:14:54.219Z,65.60
2019-04-04T07:16:06.648Z,65.61
2019-04-04T07:17:08.333Z,65.58
2019-04-04T07:18:12.989Z,65.55
2019-04-04T07:19:19.313Z,65.49
2019-04-04T07:20:24.482Z,65.49
2019-04-04T07:21:29.628Z,65.46
2019-04-04T07:22:34.796Z,65.44
2019-04-04T07:23:41.842Z,65.89
2019-04-04T07:24:46.880Z,65.89
2019-04-04T07:25:53.565Z,65.29
2019-04-04T07:26:59.157Z,65.12
2019-04-04T07:28:04.575Z,64.99
2019-04-04T07:29:11.115Z,64.86
2019-04-04T07:30:16.655Z,64.71
2019-04-04T07:31:21.591Z,64.54
2019-04-04T07:32:26.559Z,64.40
2019-04-04T07:33:31.725Z,64.33
2019-04-04T07:34:36.876Z,64.25
2019-04-04T07:35:41.830Z,64.15
2019-04-04T07:36:46.787Z,64.02
2019-04-04T07:37:56.618Z,63.89
2019-04-04T07:39:00.425Z,63.80
2019-04-04T07:40:06.643Z,63.69
2019-04-04T07:41:14.634Z,63.57
2019-04-04T07:42:19.014Z,63.49
2019-04-04T07:43:24.082Z,63.45
2019-04-04T07:44:29.077Z,63.37
2019-04-04T07:45:34.644Z,63.29
2019-04-04T07:46:41.258Z,63.19
2019-04-04T07:47:47.519Z,63.06
2019-04-04T07:48:52.870Z,62.98
2019-04-04T07:49:57.872Z,62.89
2019-04-04T07:51:03.043Z,62.77
2019-04-04T07:52:08.304Z,62.69
2019-04-04T07:53:13.334Z,62.59
2019-04-04T07:54:18.988Z,62.52
2019-04-04T07:55:23.994Z,62.44
2019-04-04T07:56:29.069Z,62.41
2019-04-04T07:57:34.531Z,62.35
2019-04-04T07:58:39.723Z,62.26
2019-04-04T07:59:44.871Z,62.20
2019-04-04T08:00:50.068Z,62.15
2019-04-04T08:01:55.559Z,62.11
2019-04-04T08:03:00.704Z,62.04
2019-04-04T08:04:06.740Z,61.94
2019-04-04T08:05:13.290Z,61.84
2019-04-04T08:06:18.899Z,61.76
2019-04-04T08:07:23.955Z,61.69
2019-04-04T08:08:29.603Z,61.62
2019-04-04T08:09:34.750Z,61.52
2019-04-04T08:10:39.831Z,61.46
2019-04-04T08:11:45.000Z,61.41
2019-04-04T08:12:50.097Z,61.36
2019-04-04T08:13:55.269Z,61.33
2019-04-04T08:15:00.296Z,61.28
2019-04-04T08:16:06.311Z,61.17
2019-04-04T08:17:11.367Z,61.04
2019-04-04T08:18:16.875Z,60.94
2019-04-04T08:19:22.161Z,60.79
2019-04-04T08:20:27.495Z,60.67
2019-04-04T08:21:32.848Z,60.56
2019-04-04T08:22:39.830Z,60.53
2019-04-04T08:23:44.975Z,60.43
2019-04-04T08:24:50.298Z,60.34
2019-04-04T08:25:55.410Z,60.27
2019-04-04T08:27:00.618Z,60.24
2019-04-04T08:28:05.705Z,60.18
2019-04-04T08:29:10.846Z,60.11
2019-04-04T08:30:16.041Z,60.03
2019-04-04T08:31:21.425Z,60.00
2019-04-04T08:32:26.350Z,59.94
2019-04-04T08:33:31.361Z,59.88
2019-04-04T08:34:36.717Z,59.79
2019-04-04T08:35:41.845Z,59.78
2019-04-04T08:36:46.908Z,59.72
2019-04-04T08:37:51.846Z,59.62
2019-04-04T08:38:57.059Z,59.53
2019-04-04T08:40:02.215Z,59.41
2019-04-04T08:41:07.366Z,59.35
2019-04-04T08:42:12.831Z,59.26
2019-04-04T08:43:17.825Z,59.14
2019-04-04T08:44:22.974Z,59.06
2019-04-04T08:45:28.362Z,59.02
2019-04-04T08:46:33.842Z,58.96
2019-04-04T08:47:38.874Z,58.91
2019-04-04T08:48:43.927Z,58.87
2019-04-04T08:49:49.007Z,58.80
2019-04-04T08:50:54.351Z,58.74
2019-04-04T08:51:59.432Z,58.63
2019-04-04T08:53:04.411Z,58.50
2019-04-04T08:54:09.405Z,58.38
2019-04-04T08:55:14.779Z,58.31
2019-04-04T08:56:19.766Z,58.27
2019-04-04T08:57:24.715Z,58.24
2019-04-04T08:58:29.927Z,58.21
2019-04-04T08:59:34.991Z,58.16
2019-04-04T09:00:40.060Z,58.14
2019-04-04T09:01:45.403Z,58.17
2019-04-04T09:02:50.357Z,58.17
2019-04-04T09:03:55.468Z,58.07
2019-04-04T09:05:11.332Z,57.96
2019-04-04T09:06:08.586Z,57.99
2019-04-04T09:07:14.075Z,57.98
2019-04-04T09:08:19.551Z,57.91
2019-04-04T09:09:26.356Z,57.83
2019-04-04T09:10:33.090Z,57.78
2019-04-04T09:11:39.497Z,57.75
2019-04-04T09:12:47.347Z,57.65
2019-04-04T09:13:54.631Z,57.59
2019-04-04T09:15:00.111Z,57.59
2019-04-04T09:16:05.490Z,57.51
2019-04-04T09:17:10.769Z,57.50
2019-04-04T09:18:16.031Z,57.44
2019-04-04T09:19:21.012Z,57.35
2019-04-04T09:20:26.109Z,57.27
2019-04-04T09:21:31.150Z,57.20
2019-04-04T09:22:40.894Z,57.09
2019-04-04T09:23:50.423Z,56.90
2019-04-04T09:25:01.349Z,56.77
2019-04-04T09:26:16.172Z,56.70
2019-04-04T09:27:23.621Z,56.61
2019-04-04T09:28:29.159Z,56.59
2019-04-04T09:29:37.230Z,56.55
2019-04-04T09:30:43.057Z,56.47
2019-04-04T09:31:50.146Z,56.39
2019-04-04T09:32:55.601Z,56.28
2019-04-04T09:34:01.172Z,56.28
2019-04-04T09:35:09.780Z,56.21
2019-04-04T09:36:16.059Z,56.10
2019-04-04T09:37:22.365Z,56.14
2019-04-04T09:38:29.136Z,56.10
2019-04-04T09:39:34.925Z,56.05
2019-04-04T09:40:39.354Z,56.02
2019-04-04T09:41:45.186Z,55.96
2019-04-04T09:42:50.232Z,55.97
2019-04-04T09:43:55.580Z,55.93
2019-04-04T09:45:00.628Z,55.90
2019-04-04T09:46:05.761Z,55.84
2019-04-04T09:47:11.051Z,55.87
2019-04-04T09:48:16.666Z,55.87
2019-04-04T09:49:21.674Z,55.96
2019-04-04T09:50:26.868Z,56.01
2019-04-04T09:51:31.978Z,56.00
2019-04-04T09:52:37.045Z,55.96
2019-04-04T09:53:52.927Z,55.96
2019-04-04T09:54:49.208Z,55.94
2019-04-04T09:55:54.305Z,55.89
2019-04-04T09:56:59.482Z,55.81
2019-04-04T09:58:05.038Z,55.63
2019-04-04T09:59:10.343Z,55.45
2019-04-04T10:00:16.906Z,55.37
2019-04-04T10:01:22.345Z,55.34
2019-04-04T10:02:27.472Z,55.25
2019-04-04T10:03:32.459Z,55.21
2019-04-04T10:04:37.815Z,55.21
2019-04-04T10:05:42.867Z,55.17
2019-04-04T10:06:48.872Z,55.17
2019-04-04T10:07:53.855Z,55.09
2019-04-04T10:08:58.801Z,55.09
2019-04-04T10:10:04.844Z,55.02
2019-04-04T10:11:09.917Z,54.95
2019-04-04T10:12:15.321Z,54.92
2019-04-04T10:13:20.263Z,54.87
2019-04-04T10:14:25.335Z,54.81
2019-04-04T10:15:30.425Z,54.81
2019-04-04T10:16:35.558Z,54.79
2019-04-04T10:17:40.645Z,54.73
2019-04-04T10:18:45.682Z,54.69
2019-04-04T10:19:51.022Z,54.74
2019-04-04T10:20:56.152Z,54.80
2019-04-04T10:22:01.163Z,54.92
2019-04-04T10:23:06.194Z,55.00
2019-04-04T10:24:11.762Z,55.00
2019-04-04T10:25:17.186Z,55.00
2019-04-04T10:26:22.450Z,55.05
2019-04-04T10:27:27.449Z,55.04
2019-04-04T10:28:32.510Z,54.98
2019-04-04T10:29:37.935Z,54.86
2019-04-04T10:30:43.033Z,54.68
2019-04-04T10:31:48.460Z,54.61
2019-04-04T10:32:53.402Z,54.50
2019-04-04T10:33:58.662Z,54.50
2019-04-04T10:35:04.006Z,54.53
2019-04-04T10:36:09.060Z,54.35
2019-04-04T10:37:14.134Z,54.18
2019-04-04T10:38:19.229Z,54.07
2019-04-04T10:39:29.063Z,53.89
2019-04-04T10:40:30.948Z,53.83
2019-04-04T10:41:36.008Z,53.78
2019-04-04T10:42:41.787Z,53.71
2019-04-04T10:43:47.383Z,53.67
2019-04-04T10:44:52.419Z,53.69
2019-04-04T10:45:57.860Z,53.68
2019-04-04T10:47:02.911Z,53.66
2019-04-04T10:48:07.995Z,53.64
2019-04-04T10:49:12.992Z,53.62
2019-04-04T10:50:18.322Z,53.62
2019-04-04T10:51:23.367Z,53.60
2019-04-04T10:52:28.403Z,53.51
2019-04-04T10:53:33.543Z,53.51
2019-04-04T10:54:38.621Z,53.48
2019-04-04T10:55:43.922Z,53.41
2019-04-04T10:56:49.513Z,53.39
2019-04-04T10:57:54.563Z,53.35
2019-04-04T10:58:59.611Z,53.36
2019-04-04T11:00:06.718Z,53.37
2019-04-04T11:01:11.738Z,53.36
2019-04-04T11:02:16.801Z,53.28
2019-04-04T11:03:21.831Z,53.22
2019-04-04T11:04:26.862Z,53.14
2019-04-04T11:05:35.089Z,53.03
2019-04-04T11:06:38.778Z,52.89
2019-04-04T11:07:43.949Z,52.84
2019-04-04T11:08:49.093Z,52.81
2019-04-04T11:09:54.464Z,52.79
2019-04-04T11:10:59.646Z,52.76
2019-04-04T11:12:04.995Z,52.76
2019-04-04T11:13:10.830Z,52.73
2019-04-04T11:14:15.801Z,52.71
2019-04-04T11:15:20.942Z,52.75
2019-04-04T11:16:30.457Z,52.81
2019-04-04T11:17:33.204Z,52.86
2019-04-04T11:18:38.468Z,53.00
2019-04-04T11:19:43.732Z,53.11
2019-04-04T11:20:48.805Z,53.28
2019-04-04T11:21:54.053Z,53.45
2019-04-04T11:22:59.026Z,53.66
2019-04-04T11:24:04.145Z,53.83
2019-04-04T11:25:09.258Z,53.89
2019-04-04T11:26:14.381Z,53.96
2019-04-04T11:27:19.881Z,54.05
2019-04-04T11:28:25.049Z,54.12
2019-04-04T11:29:30.350Z,54.07
2019-04-04T11:30:35.517Z,54.06
2019-04-04T11:31:40.555Z,54.13
2019-04-04T11:32:48.732Z,54.21
2019-04-04T11:33:52.701Z,54.16
2019-04-04T11:34:58.059Z,54.21
2019-04-04T11:36:04.794Z,54.18
2019-04-04T11:37:09.879Z,54.20
2019-04-04T11:38:15.419Z,54.20
2019-04-04T11:39:21.035Z,54.14
2019-04-04T11:40:26.105Z,54.12
2019-04-04T11:41:31.186Z,54.06
2019-04-04T11:42:36.268Z,54.09
2019-04-04T11:43:41.738Z,54.14
2019-04-04T11:44:46.923Z,54.20
2019-04-04T11:45:52.322Z,54.29
2019-04-04T11:46:57.312Z,54.39
2019-04-04T11:48:02.449Z,54.50
2019-04-04T11:49:07.884Z,54.57
2019-04-04T11:50:13.653Z,54.61
2019-04-04T11:51:18.808Z,54.66
2019-04-04T11:52:23.997Z,54.70
2019-04-04T11:53:28.967Z,54.75
2019-04-04T11:54:58.295Z,54.80
2019-04-04T11:56:03.575Z,54.85
2019-04-04T11:57:08.541Z,54.90
2019-04-04T11:58:13.600Z,55.04
2019-04-04T11:59:18.700Z,55.17
2019-04-04T12:00:30.971Z,55.25
2019-04-04T12:01:37.964Z,55.31
2019-04-04T12:02:43.322Z,55.41
2019-04-04T12:03:48.318Z,55.47
2019-04-04T12:04:53.778Z,55.55
2019-04-04T12:05:58.888Z,55.66
2019-04-04T12:07:03.953Z,55.71
2019-04-04T12:08:09.382Z,55.81
2019-04-04T12:09:14.580Z,55.89
2019-04-04T12:10:20.003Z,56.00
2019-04-04T12:11:25.323Z,56.08
2019-04-04T12:12:30.398Z,56.20
2019-04-04T12:13:35.795Z,56.31
2019-04-04T12:14:40.977Z,56.49
2019-04-04T12:15:46.183Z,56.53
2019-04-04T12:16:51.836Z,56.52
2019-04-04T12:17:56.832Z,56.61
2019-04-04T12:19:02.248Z,56.65
2019-04-04T12:20:08.144Z,56.66
2019-04-04T12:21:13.088Z,56.67
2019-04-04T12:22:18.623Z,56.70
2019-04-04T12:23:23.789Z,56.78
2019-04-04T12:24:28.866Z,56.87
2019-04-04T12:25:33.975Z,56.86
2019-04-04T12:26:39.084Z,56.93
2019-04-04T12:27:44.152Z,57.05
2019-04-04T12:28:49.607Z,57.26
2019-04-04T12:29:54.755Z,57.41
2019-04-04T12:31:00.011Z,57.46
2019-04-04T12:32:05.510Z,57.47
2019-04-04T12:33:10.611Z,57.52
2019-04-04T12:34:15.906Z,57.57
2019-04-04T12:35:20.980Z,57.60
2019-04-04T12:36:26.254Z,57.70
2019-04-04T12:37:31.346Z,57.81
2019-04-04T12:38:36.341Z,57.91
2019-04-04T12:39:44.294Z,58.03
2019-04-04T12:40:48.789Z,58.07
2019-04-04T12:41:54.455Z,58.09
2019-04-04T12:42:59.506Z,58.10
2019-04-04T12:44:05.113Z,58.18
2019-04-04T12:45:10.470Z,58.19
2019-04-04T12:46:15.895Z,58.21
2019-04-04T12:47:20.974Z,58.16
2019-04-04T12:48:26.079Z,58.18
2019-04-04T12:49:31.423Z,58.46
2019-04-04T12:50:36.585Z,58.67
2019-04-04T12:51:41.617Z,58.82
2019-04-04T12:52:46.902Z,58.88
2019-04-04T12:53:51.963Z,59.00
2019-04-04T12:54:56.997Z,59.12
2019-04-04T12:56:02.750Z,58.76
2019-04-04T12:57:08.186Z,58.56
2019-04-04T12:58:14.372Z,58.72
2019-04-04T12:59:19.653Z,58.75
2019-04-04T13:00:24.726Z,58.96
2019-04-04T13:01:29.873Z,59.14
2019-04-04T13:02:34.909Z,59.37
2019-04-04T13:03:39.879Z,59.53
2019-04-04T13:04:44.974Z,59.68
2019-04-04T13:05:50.392Z,59.86
2019-04-04T13:06:55.491Z,60.01
2019-04-04T13:08:00.845Z,60.23
2019-04-04T13:09:08.450Z,60.37
2019-04-04T13:10:14.520Z,60.39
2019-04-04T13:11:19.618Z,60.21
2019-04-04T13:12:24.949Z,59.99
2019-04-04T13:13:30.060Z,59.83
2019-04-04T13:14:35.200Z,59.71
2019-04-04T13:15:40.312Z,59.68
2019-04-04T13:16:45.485Z,59.75
2019-04-04T13:17:50.535Z,59.87
2019-04-04T13:18:55.715Z,59.93
2019-04-04T13:20:00.823Z,59.94
2019-04-04T13:21:06.015Z,59.85
2019-04-04T13:22:11.175Z,59.68
2019-04-04T13:23:16.197Z,59.54
2019-04-04T13:24:21.352Z,59.47
2019-04-04T13:25:26.558Z,59.35
2019-04-04T13:26:31.498Z,59.31
2019-04-04T13:27:36.697Z,59.27
2019-04-04T13:28:42.029Z,59.29
2019-04-04T13:29:47.546Z,59.18
2019-04-04T13:30:52.624Z,59.08
2019-04-04T13:31:57.992Z,58.99
2019-04-04T13:33:03.057Z,58.92
2019-04-04T13:34:08.812Z,58.88
2019-04-04T13:35:14.110Z,58.76
2019-04-04T13:36:19.302Z,58.59
2019-04-04T13:37:24.654Z,58.41
2019-04-04T13:38:29.949Z,58.14
2019-04-04T13:39:35.109Z,57.99
2019-04-04T13:40:45.603Z,57.86
2019-04-04T13:41:47.224Z,57.79
2019-04-04T13:42:53.102Z,57.70
2019-04-04T13:43:58.833Z,57.65
2019-04-04T13:45:04.473Z,57.63
2019-04-04T13:46:11.102Z,57.74
2019-04-04T13:47:16.486Z,57.79
2019-04-04T13:48:21.956Z,57.75
2019-04-04T13:49:27.014Z,57.79
2019-04-04T13:50:32.150Z,57.85
2019-04-04T13:51:37.673Z,57.90
2019-04-04T13:52:43.170Z,57.97
2019-04-04T13:53:48.178Z,58.04
2019-04-04T13:54:55.618Z,58.07
2019-04-04T13:56:00.040Z,58.14
2019-04-04T13:57:05.156Z,58.21
2019-04-04T13:58:10.246Z,58.30
2019-04-04T13:59:15.608Z,58.44
2019-04-04T14:00:21.362Z,58.57
2019-04-04T14:01:26.633Z,58.69
2019-04-04T14:02:31.762Z,58.79